Time;durP1;ratioP1;P1;durP2;ratioP2;P2;SDS_P1;SDS_P2;PMS_P1;PMS_P2;Temp;Humidity;BMP_temperature;BMP_pressure;BME280_temperature;BME280_humidity;BME280_pressure;Samples;Min_cycle;Max_cycle;Signal;HPM_P1;HPM_P2
2023/07/03 00:01:19;;;;;;;7.47;2.23;;;;;;;11.63;81.98;98586.44;1725280;81;21543;-66
2023/07/03 00:03:45;;;;;;;8.45;3.10;;;;;;;11.63;82.15;98578.59;1725349;81;21537;-67
2023/07/03 00:06:11;;;;;;;6.95;2.67;;;;;;;11.65;82.17;98585.87;1724814;81;21417;-66
2023/07/03 00:08:38;;;;;;;4.35;2.42;;;;;;;11.67;82.08;98585.27;1726795;81;21037;-66
2023/07/03 00:11:05;;;;;;;9.35;2.77;;;;;;;11.63;82.08;98578.59;1723853;81;21161;-66
2023/07/03 00:13:32;;;;;;;8.95;2.52;;;;;;;11.64;82.23;98583.70;1721210;81;20991;-66
2023/07/03 00:16:00;;;;;;;8.15;2.67;;;;;;;11.66;82.17;98583.61;1718485;81;20991;-66
2023/07/03 00:18:28;;;;;;;6.40;2.10;;;;;;;11.65;82.09;98581.95;1726321;81;20987;-66
2023/07/03 00:20:55;;;;;;;11.22;2.52;;;;;;;11.66;82.38;98582.30;1720170;81;21505;-66
2023/07/03 00:23:23;;;;;;;5.28;2.42;;;;;;;11.69;82.37;98586.00;1717887;81;20993;-66
2023/07/03 00:25:49;;;;;;;;;;;;;;;11.70;82.29;98586.36;1719123;81;21601;-66
2023/07/03 00:28:16;;;;;;;8.28;2.00;;;;;;;11.72;82.44;98591.02;1720294;81;20930;-67
2023/07/03 00:30:43;;;;;;;13.15;2.83;;;;;;;11.70;82.22;98585.05;1726255;81;21458;-66
2023/07/03 00:33:10;;;;;;;;;;;;;;;11.70;82.46;98585.05;1719697;81;20999;-66
2023/07/03 00:35:38;;;;;;;9.83;2.42;;;;;;;11.71;82.66;98589.36;1721310;81;20411;-66
2023/07/03 00:38:05;;;;;;;11.53;2.72;;;;;;;11.72;82.57;98589.70;1717719;81;21469;-66
2023/07/03 00:40:32;;;;;;;9.00;2.27;;;;;;;11.73;82.44;98590.06;1719353;81;21485;-66
2023/07/03 00:42:59;;;;;;;6.25;2.27;;;;;;;11.72;82.39;98596.25;1719249;81;21607;-66
2023/07/03 00:45:26;;;;;;;7.25;2.37;;;;;;;11.70;82.41;98587.66;1724401;81;20924;-66
2023/07/03 00:47:54;;;;;;;4.65;2.47;;;;;;;11.69;82.32;98591.23;1723107;81;21434;-66
2023/07/03 00:50:21;;;;;;;7.67;2.95;;;;;;;11.68;82.51;98594.80;1722735;81;21461;-66
2023/07/03 00:52:54;;;;;;;13.35;2.80;;;;;;;11.70;82.59;98592.89;1721693;81;20947;-66
2023/07/03 00:55:22;;;;;;;6.92;2.40;;;;;;;11.71;82.40;98593.28;1714539;81;20939;-66
2023/07/03 00:57:50;;;;;;;10.82;3.00;;;;;;;11.70;82.37;98595.51;1719701;81;21065;-66
2023/07/03 01:00:18;;;;;;;6.40;2.30;;;;;;;11.69;82.61;98601.69;1720885;81;21017;-66
2023/07/03 01:02:58;;;;;;;4.65;1.87;;;;;;;11.71;82.63;98597.20;1722759;81;20969;-66
2023/07/03 01:05:26;;;;;;;6.20;2.37;;;;;;;11.74;82.53;98607.44;1721770;81;20974;-66
2023/07/03 01:07:54;;;;;;;9.65;3.30;;;;;;;11.77;82.57;98594.15;1721178;81;21021;-66
2023/07/03 01:10:23;;;;;;;9.03;2.65;;;;;;;11.77;82.52;98598.07;1722236;81;21572;-66
2023/07/03 01:13:02;;;;;;;8.50;2.22;;;;;;;11.80;82.51;98595.72;1727483;81;20950;-66
2023/07/03 01:15:32;;;;;;;6.78;2.35;;;;;;;11.82;82.39;98599.90;1724525;81;20994;-66
2023/07/03 01:18:02;;;;;;;4.95;2.65;;;;;;;11.83;82.38;98598.94;1725806;81;21508;-66
2023/07/03 01:20:32;;;;;;;5.37;2.22;;;;;;;11.82;82.34;98604.30;1725577;81;21093;-66
2023/07/03 01:23:05;;;;;;;7.20;2.50;;;;;;;11.82;82.29;98608.22;1726434;81;21707;-66
2023/07/03 01:25:34;;;;;;;8.15;2.60;;;;;;;11.80;82.25;98604.39;1723673;81;21018;-66
2023/07/03 01:28:03;;;;;;;5.22;2.20;;;;;;;11.79;82.44;98605.34;1728624;81;20990;-66
2023/07/03 01:30:31;;;;;;;4.83;2.05;;;;;;;11.79;82.27;98597.50;1730706;81;21556;-66
2023/07/03 01:32:59;;;;;;;9.48;2.20;;;;;;;11.75;82.19;98593.41;1726120;81;21025;-66
2023/07/03 01:35:26;;;;;;;5.78;2.00;;;;;;;11.73;82.31;98586.14;1723931;81;21014;-66
2023/07/03 01:37:57;;;;;;;9.33;2.70;;;;;;;11.73;82.31;98596.59;1724271;81;20970;-66
2023/07/03 01:40:26;;;;;;;5.85;2.33;;;;;;;11.71;82.44;98585.44;1728157;81;20950;-66
2023/07/03 01:42:55;;;;;;;6.45;2.50;;;;;;;11.71;82.32;98590.66;1727574;81;21410;-66
2023/07/03 01:45:21;;;;;;;7.58;2.30;;;;;;;11.70;82.26;98583.73;1728425;81;20923;-66
2023/07/03 01:47:47;;;;;;;8.60;2.52;;;;;;;11.69;82.33;98580.77;1729033;81;20936;-66
2023/07/03 01:50:20;;;;;;;4.33;2.17;;;;;;;11.69;82.26;98582.56;1726930;81;20998;-66
2023/07/03 01:52:51;;;;;;;7.90;2.40;;;;;;;11.67;82.31;98581.34;1727050;81;21078;-66
2023/07/03 01:55:31;;;;;;;11.63;2.72;;;;;;;11.69;82.37;98580.77;1726094;81;21622;-66
2023/07/03 01:58:04;;;;;;;6.85;2.40;;;;;;;11.72;82.35;98572.70;1729025;81;21084;-66
2023/07/03 02:00:40;;;;;;;7.50;2.42;;;;;;;11.71;82.22;98578.89;1727628;81;21042;-66
2023/07/03 02:03:10;;;;;;;6.58;2.52;;;;;;;11.68;82.12;98573.88;1728406;81;21020;-66
2023/07/03 02:05:39;;;;;;;4.22;2.10;;;;;;;11.65;82.10;98574.09;1724880;81;21039;-66
2023/07/03 02:08:08;;;;;;;5.45;2.45;;;;;;;11.64;82.27;98577.64;1729979;81;20998;-66
2023/07/03 02:10:36;;;;;;;8.30;3.02;;;;;;;11.64;82.20;98567.18;1725857;81;21573;-66
2023/07/03 02:13:03;;;;;;;;;;;;;;;11.65;82.24;98572.80;1697693;83;21471;-66
2023/07/03 02:15:29;;;;;;;10.43;2.72;;;;;;;11.67;82.25;98575.28;1699605;83;20517;-66
2023/07/03 02:17:57;;;;;;;10.08;3.25;;;;;;;11.67;82.15;98573.50;1695056;82;21572;-66
2023/07/03 02:20:24;;;;;;;9.60;2.98;;;;;;;11.67;82.16;98571.36;1662933;84;21566;-66
2023/07/03 02:22:50;;;;;;;8.33;2.55;;;;;;;11.67;82.08;98569.58;1674657;85;21002;-66
2023/07/03 02:25:16;;;;;;;6.87;2.40;;;;;;;11.68;82.10;98567.34;1673077;84;21606;-67
2023/07/03 02:27:43;;;;;;;4.22;1.90;;;;;;;11.68;82.01;98573.02;1673751;84;21010;-67
2023/07/03 02:30:11;;;;;;;7.15;2.35;;;;;;;11.65;82.05;98568.87;1669735;84;20991;-66
2023/07/03 02:32:39;;;;;;;5.55;2.67;;;;;;;11.64;82.03;98565.88;1671988;83;20998;-66
2023/07/03 02:35:10;;;;;;;8.95;2.98;;;;;;;11.65;82.15;98566.26;1672845;85;20950;-66
2023/07/03 02:37:36;;;;;;;7.00;2.87;;;;;;;11.65;82.09;98566.26;1671858;85;20975;-66
2023/07/03 02:40:10;;;;;;;9.55;2.65;;;;;;;11.65;82.17;98568.87;1673947;84;20920;-66
2023/07/03 02:42:34;;;;;;;9.23;3.40;;;;;;;11.66;82.13;98567.91;1671881;85;20974;-66
2023/07/03 02:45:03;;;;;;;5.53;2.22;;;;;;;11.67;82.11;98566.13;1674576;84;20994;-66
2023/07/03 02:47:32;;;;;;;7.33;2.33;;;;;;;11.66;82.20;98560.08;1674097;84;21470;-67
2023/07/03 02:49:58;;;;;;;7.08;2.60;;;;;;;11.69;82.25;98569.01;1673851;83;21000;-66
2023/07/03 02:52:24;;;;;;;9.18;2.58;;;;;;;11.75;82.34;98564.64;1683769;84;20994;-66
2023/07/03 02:54:51;;;;;;;7.95;2.95;;;;;;;11.81;82.40;98560.28;1673460;85;21003;-66
2023/07/03 02:57:17;;;;;;;15.90;2.83;;;;;;;11.88;82.24;98561.22;1674507;85;20978;-66
2023/07/03 02:59:44;;;;;;;9.27;2.80;;;;;;;11.91;82.19;98564.92;1675607;84;21066;-66
2023/07/03 03:02:10;;;;;;;4.62;2.62;;;;;;;11.93;82.27;98559.08;1666858;85;21010;-67
2023/07/03 03:04:36;;;;;;;6.37;2.77;;;;;;;11.97;82.29;98560.55;1672579;85;21547;-66
2023/07/03 03:07:04;;;;;;;8.78;2.40;;;;;;;12.01;82.28;98560.68;1669747;84;21484;-66
2023/07/03 03:09:30;;;;;;;14.63;2.70;;;;;;;12.06;82.27;98558.58;1674423;84;21026;-66
2023/07/03 03:11:56;;;;;;;6.80;2.70;;;;;;;12.09;82.22;98559.66;1675262;84;21061;-66
2023/07/03 03:14:23;;;;;;;5.40;2.52;;;;;;;12.14;82.23;98560.17;1691505;83;21034;-66
2023/07/03 03:16:49;;;;;;;5.23;2.53;;;;;;;12.21;82.30;98561.41;1690733;83;21030;-66
2023/07/03 03:19:16;;;;;;;5.50;2.85;;;;;;;12.29;82.34;98563.00;1690066;83;22766;-66
2023/07/03 03:21:42;;;;;;;6.15;3.05;;;;;;;12.39;82.35;98561.02;1688493;83;21643;-66
2023/07/03 03:24:08;;;;;;;8.85;2.90;;;;;;;12.47;82.34;98560.81;1694523;83;21530;-66
2023/07/03 03:26:35;;;;;;;7.12;2.70;;;;;;;12.53;82.13;98552.50;1692488;83;21015;-66
2023/07/03 03:29:02;;;;;;;9.75;2.65;;;;;;;12.54;82.03;98561.18;1695655;83;20992;-66
2023/07/03 03:31:28;;;;;;;7.37;2.77;;;;;;;12.55;81.97;98558.95;1690607;82;21061;-66
2023/07/03 03:33:55;;;;;;;13.93;2.95;;;;;;;12.53;81.96;98556.91;1691262;83;21478;-66
2023/07/03 03:36:21;;;;;;;5.67;2.85;;;;;;;12.58;81.92;98563.13;1697768;83;21510;-66
2023/07/03 03:38:47;;;;;;;10.72;3.77;;;;;;;12.59;81.97;98565.61;1658713;84;21015;-67
2023/07/03 03:41:14;;;;;;;7.72;2.60;;;;;;;12.66;82.10;98572.08;1727032;81;22161;-67
2023/07/03 03:43:40;;;;;;;7.13;2.70;;;;;;;12.69;81.93;98566.61;1725651;81;21450;-66
2023/07/03 03:46:08;;;;;;;6.12;2.62;;;;;;;12.72;81.76;98569.00;1725062;81;21622;-67
2023/07/03 03:48:35;;;;;;;8.28;3.17;;;;;;;12.78;81.83;98562.95;1728194;81;20999;-67
2023/07/03 03:51:01;;;;;;;;;;;;;;;12.81;81.66;98566.64;1727449;81;21136;-67
2023/07/03 03:53:28;;;;;;;3.40;2.12;;;;;;;12.80;81.49;98572.81;1728843;81;20105;-67
2023/07/03 03:55:54;;;;;;;7.15;3.12;;;;;;;12.70;81.04;98563.03;1737758;81;21563;-66
2023/07/03 03:58:21;;;;;;;6.37;2.80;;;;;;;12.59;81.36;98542.52;1728290;81;20973;-66
2023/07/03 04:00:50;;;;;;;12.00;3.45;;;;;;;12.59;81.36;98542.52;1728026;81;20979;-66
2023/07/03 04:03:16;;;;;;;8.20;3.30;;;;;;;12.75;81.61;98554.36;1723943;81;21307;-66
2023/07/03 04:05:43;;;;;;;11.50;3.67;;;;;;;12.83;81.44;98559.52;1721702;81;21087;-66
2023/07/03 04:08:10;;;;;;;5.73;3.00;;;;;;;12.90;81.41;98555.47;1727447;81;20987;-67
2023/07/03 04:10:37;;;;;;;8.68;3.50;;;;;;;13.00;81.34;98566.93;1724299;81;21026;-67
2023/07/03 04:13:03;;;;;;;7.08;2.90;;;;;;;13.10;81.49;98557.41;1725753;81;21111;-66
2023/07/03 04:15:33;;;;;;;9.05;3.00;;;;;;;13.21;81.46;98560.03;1725059;81;21043;-67
2023/07/03 04:18:00;;;;;;;7.20;3.45;;;;;;;13.31;81.17;98564.62;1723695;81;21468;-66
2023/07/03 04:20:27;;;;;;;;;;;;;;;13.40;81.12;98564.73;1728577;81;20958;-66
2023/07/03 04:22:54;;;;;;;12.15;4.15;;;;;;;13.53;81.02;98564.64;1725061;81;20156;-67
2023/07/03 04:25:21;;;;;;;8.18;2.98;;;;;;;13.62;81.17;98570.47;1736670;81;21052;-66
2023/07/03 04:27:48;;;;;;;8.85;3.17;;;;;;;13.75;81.13;98568.18;1726985;81;20932;-67
2023/07/03 04:30:14;;;;;;;10.10;3.15;;;;;;;13.86;80.90;98562.92;1724277;81;21006;-66
2023/07/03 04:32:40;;;;;;;8.98;3.60;;;;;;;13.93;80.27;98558.87;1730645;81;20954;-67
2023/07/03 04:35:10;;;;;;;10.15;3.45;;;;;;;14.04;80.45;98565.41;1723522;81;21070;-68
2023/07/03 04:37:37;;;;;;;6.53;3.40;;;;;;;14.13;79.94;98561.70;1723888;81;21533;-67
2023/07/03 04:40:04;;;;;;;4.67;2.98;;;;;;;14.19;79.54;98571.69;1728031;81;21387;-66
2023/07/03 04:42:31;;;;;;;9.13;3.40;;;;;;;14.24;79.48;98572.99;1729524;81;20915;-66
2023/07/03 04:45:00;;;;;;;8.33;3.17;;;;;;;14.25;79.65;98566.77;1726889;81;20982;-67
2023/07/03 04:47:30;;;;;;;8.85;2.92;;;;;;;14.34;79.42;98565.22;1730110;81;20955;-66
2023/07/03 04:49:58;;;;;;;8.18;3.17;;;;;;;14.39;79.08;98568.28;1725560;81;21026;-66
2023/07/03 04:52:27;;;;;;;6.80;2.98;;;;;;;14.45;79.16;98557.75;1707127;82;21029;-67
2023/07/03 04:54:54;;;;;;;4.72;2.75;;;;;;;14.51;78.14;98560.73;1707250;82;21669;-67
2023/07/03 04:57:20;;;;;;;7.15;2.85;;;;;;;14.61;78.78;98565.25;1726142;81;21552;-67
2023/07/03 04:59:48;;;;;;;4.80;2.98;;;;;;;14.72;79.08;98563.89;1727458;81;21595;-67
2023/07/03 05:02:20;;;;;;;8.35;2.60;;;;;;;14.84;78.44;98570.75;1726969;81;21014;-67
2023/07/03 05:04:46;;;;;;;11.28;2.98;;;;;;;14.94;78.45;98568.20;1728694;81;21442;-66
2023/07/03 05:07:13;;;;;;;7.08;2.67;;;;;;;14.97;78.06;98561.37;1729011;81;21026;-66
2023/07/03 05:09:40;;;;;;;6.92;3.00;;;;;;;15.02;78.07;98557.05;1730081;81;20990;-67
2023/07/03 05:12:07;;;;;;;5.53;2.90;;;;;;;15.14;77.50;98559.46;1733149;80;21036;-66
2023/07/03 05:14:35;;;;;;;10.95;3.10;;;;;;;15.22;78.03;98554.88;1745296;80;21076;-67
2023/07/03 05:17:02;;;;;;;4.37;2.60;;;;;;;15.34;76.73;98556.45;1740981;81;20958;-66
2023/07/03 05:19:29;;;;;;;10.28;3.25;;;;;;;15.39;77.34;98566.10;1732017;81;21159;-66
2023/07/03 05:21:55;;;;;;;5.97;2.87;;;;;;;15.43;76.69;98559.63;1730509;81;20978;-67
2023/07/03 05:24:22;;;;;;;7.35;2.98;;;;;;;15.50;75.36;98559.92;1734697;81;21010;-67
2023/07/03 05:26:48;;;;;;;7.10;2.77;;;;;;;15.52;76.55;98567.70;1733956;81;21029;-67
2023/07/03 05:29:14;;;;;;;6.40;3.20;;;;;;;15.63;74.26;98567.61;1729733;81;21070;-67
2023/07/03 05:31:40;;;;;;;13.90;2.80;;;;;;;15.64;75.70;98574.52;1731485;81;20995;-67
2023/07/03 05:34:06;;;;;;;8.50;2.92;;;;;;;15.69;75.28;98581.58;1736856;80;21527;-67
2023/07/03 05:36:35;;;;;;;7.17;2.97;;;;;;;15.74;75.09;98571.94;1733699;80;21587;-69
2023/07/03 05:39:02;;;;;;;6.83;2.80;;;;;;;15.77;73.22;98572.53;1734924;81;21485;-67
2023/07/03 05:41:30;;;;;;;11.27;3.23;;;;;;;15.83;74.98;98579.89;1731481;81;21554;-66
2023/07/03 05:43:56;;;;;;;8.20;3.17;;;;;;;15.92;75.03;98562.95;1728951;81;21534;-66
2023/07/03 05:46:23;;;;;;;9.48;3.45;;;;;;;16.00;74.21;98573.15;1726703;80;21121;-67
2023/07/03 05:48:50;;;;;;;8.95;3.12;;;;;;;16.05;74.38;98572.75;1733027;81;21060;-67
2023/07/03 05:51:16;;;;;;;6.83;2.80;;;;;;;16.18;74.62;98579.90;1731230;81;21084;-68
2023/07/03 05:53:42;;;;;;;5.42;3.10;;;;;;;16.24;72.46;98570.13;1729491;82;20966;-66
2023/07/03 05:56:09;;;;;;;9.25;2.52;;;;;;;16.25;74.00;98574.45;1733773;81;21037;-66
2023/07/03 05:58:35;;;;;;;8.20;3.40;;;;;;;16.41;72.90;98555.94;1732042;80;21600;-68
2023/07/03 06:01:03;;;;;;;7.80;3.00;;;;;;;16.51;72.16;98560.73;1734327;82;21515;-68
2023/07/03 06:03:31;;;;;;;6.65;2.30;;;;;;;16.53;72.19;98562.76;1736031;81;22170;-67
2023/07/03 06:05:59;;;;;;;7.92;3.02;;;;;;;16.56;71.72;98559.35;1741996;81;21038;-67
2023/07/03 06:08:25;;;;;;;8.30;2.52;;;;;;;16.61;72.25;98571.27;1740100;81;21099;-66
2023/07/03 06:10:52;;;;;;;7.37;3.22;;;;;;;16.74;72.40;98567.37;1735361;81;20967;-66
2023/07/03 06:13:18;;;;;;;5.53;2.87;;;;;;;16.94;72.63;98570.89;1687826;82;21091;-66
2023/07/03 06:15:54;;;;;;;5.15;2.52;;;;;;;17.10;72.13;98565.02;1663446;84;21589;-66
2023/07/03 06:18:32;;;;;;;6.08;2.40;;;;;;;17.22;72.06;98558.61;1657484;85;20984;-67
2023/07/03 06:21:00;;;;;;;9.03;2.92;;;;;;;17.33;71.58;98567.31;1656694;85;21096;-67
2023/07/03 06:23:27;;;;;;;7.37;3.00;;;;;;;17.46;69.98;98565.20;1656049;86;21610;-66
2023/07/03 06:25:54;;;;;;;5.93;2.60;;;;;;;17.51;71.11;98570.88;1655578;86;21900;-67
2023/07/03 06:28:20;;;;;;;6.78;2.35;;;;;;;17.58;69.72;98564.02;1666035;84;21031;-67
2023/07/03 06:30:48;;;;;;;9.55;3.98;;;;;;;17.64;70.17;98570.53;1654081;85;21010;-66
2023/07/03 06:33:14;;;;;;;7.67;2.70;;;;;;;17.77;70.56;98575.48;1660051;84;21031;-64
2023/07/03 06:35:41;;;;;;;5.45;2.52;;;;;;;18.00;68.97;98563.58;1650845;85;21085;-67
2023/07/03 06:38:07;;;;;;;8.03;3.00;;;;;;;18.10;69.32;98573.60;1656329;85;21525;-69
2023/07/03 06:40:34;;;;;;;7.28;2.52;;;;;;;18.25;68.97;98575.73;1654479;86;21001;-63
2023/07/03 06:43:02;;;;;;;6.12;2.58;;;;;;;18.34;69.28;98577.47;1655528;85;21042;-68
2023/07/03 06:45:29;;;;;;;5.00;2.30;;;;;;;18.53;69.49;98575.19;1657595;86;20978;-65
2023/07/03 06:47:56;;;;;;;7.70;2.60;;;;;;;18.71;69.11;98567.27;1658594;86;21134;-68
2023/07/03 06:50:22;;;;;;;6.15;2.80;;;;;;;18.89;68.50;98565.45;1649802;84;20978;-68
2023/07/03 06:52:48;;;;;;;7.20;3.35;;;;;;;19.10;67.41;98566.91;1655299;85;21030;-67
2023/07/03 06:55:15;;;;;;;8.60;3.33;;;;;;;19.31;67.91;98555.48;1643130;85;21029;-66
2023/07/03 06:57:41;;;;;;;5.00;2.50;;;;;;;19.57;65.06;98563.89;1653417;86;20986;-64
2023/07/03 07:00:11;;;;;;;6.85;2.55;;;;;;;19.78;66.45;98564.36;1657309;85;20975;-66
2023/07/03 07:02:37;;;;;;;6.00;2.65;;;;;;;20.04;65.68;98547.55;1665402;84;21074;-69
2023/07/03 07:05:05;;;;;;;9.03;2.90;;;;;;;20.40;65.87;98564.53;1653065;85;21041;-67
2023/07/03 07:07:31;;;;;;;6.12;2.52;;;;;;;20.69;65.39;98556.12;1656069;85;21084;-62
2023/07/03 07:09:58;;;;;;;6.30;3.10;;;;;;;21.05;62.78;98557.94;1661295;85;20970;-76
2023/07/03 07:12:25;;;;;;;10.10;2.67;;;;;;;21.79;62.59;98555.11;1659504;83;21086;-83
2023/07/03 07:14:51;;;;;;;6.08;3.00;;;;;;;22.50;64.42;98556.75;1674529;85;21141;-65
2023/07/03 07:17:21;;;;;;;9.08;2.90;;;;;;;23.22;64.04;98562.17;1674763;84;21672;-71
2023/07/03 07:19:47;;;;;;;7.25;3.67;;;;;;;23.98;63.10;98560.67;1725842;81;20931;-66
2023/07/03 07:22:14;;;;;;;7.58;2.90;;;;;;;25.14;64.12;98562.25;1733451;81;20975;-67
2023/07/03 07:24:41;;;;;;;4.90;2.60;;;;;;;26.19;62.84;98566.25;1728657;81;21482;-62
2023/07/03 07:27:07;;;;;;;9.48;3.17;;;;;;;26.87;62.88;98548.26;1728922;81;21010;-63
2023/07/03 07:29:34;;;;;;;4.65;2.65;;;;;;;27.31;61.12;98564.23;1730476;81;21058;-63
2023/07/03 07:32:01;;;;;;;7.65;3.75;;;;;;;27.44;59.05;98553.47;1734741;81;21006;-64
2023/07/03 07:34:28;;;;;;;7.75;3.10;;;;;;;27.60;57.05;98570.16;1733939;81;21596;-62
2023/07/03 07:36:54;;;;;;;6.67;2.62;;;;;;;28.13;58.38;98572.67;1728749;81;21053;-65
2023/07/03 07:39:21;;;;;;;5.87;2.62;;;;;;;28.63;52.33;98553.22;1727434;82;21006;-66
2023/07/03 07:41:50;;;;;;;9.15;3.25;;;;;;;28.80;56.14;98566.41;1731279;81;20982;-63
2023/07/03 07:44:17;;;;;;;5.58;2.70;;;;;;;28.80;56.08;98560.22;1729490;81;21660;-67
2023/07/03 07:46:43;;;;;;;9.15;3.30;;;;;;;29.19;52.18;98561.25;1729820;81;20970;-65
2023/07/03 07:49:09;;;;;;;;;;;;;;;29.68;51.86;98551.16;1731257;82;21018;-63
2023/07/03 07:51:36;;;;;;;9.70;3.10;;;;;;;29.89;50.92;98551.53;1728886;82;20197;-67
2023/07/03 07:54:03;;;;;;;;;;;;;;;30.37;50.89;98556.62;1736890;81;21059;-66
2023/07/03 07:56:30;;;;;;;8.65;3.00;;;;;;;30.62;47.34;98548.91;1734528;81;20089;-65
2023/07/03 07:58:56;;;;;;;;;;;;;;;30.85;45.75;98561.10;1734400;82;21061;-65
2023/07/03 08:01:22;;;;;;;9.70;3.30;;;;;;;31.09;46.34;98540.89;1732337;82;20140;-63
2023/07/03 08:03:49;;;;;;;5.12;2.95;;;;;;;31.47;47.71;98544.49;1731415;82;21086;-63
2023/07/03 08:06:16;;;;;;;6.00;3.22;;;;;;;32.14;46.22;98535.89;1732973;82;20994;-63
2023/07/03 08:08:43;;;;;;;10.72;3.35;;;;;;;31.80;42.52;98543.84;1731368;82;21496;-64
2023/07/03 08:11:10;;;;;;;6.33;2.92;;;;;;;31.91;44.50;98560.25;1733466;81;21473;-64
2023/07/03 08:13:38;;;;;;;5.80;3.35;;;;;;;32.32;40.24;98561.37;1728225;81;21818;-65
2023/07/03 08:16:06;;;;;;;8.75;3.33;;;;;;;32.80;42.15;98555.70;1732618;81;20970;-61
2023/07/03 08:18:33;;;;;;;22.55;4.55;;;;;;;33.14;39.73;98553.33;1721034;81;21015;-61
2023/07/03 08:20:59;;;;;;;10.48;3.20;;;;;;;33.27;40.10;98554.03;1742463;81;21038;-62
2023/07/03 08:23:25;;;;;;;;;;;;;;;33.08;40.12;98574.60;1747878;81;21024;-62
2023/07/03 08:25:54;;;;;;;12.80;3.22;;;;;;;33.65;35.75;98564.88;1743463;81;20198;-62
2023/07/03 08:28:22;;;;;;;8.48;3.33;;;;;;;33.95;38.04;98560.13;1735799;81;21046;-61
2023/07/03 08:30:49;;;;;;;14.58;3.87;;;;;;;34.02;36.51;98569.66;1730407;81;20978;-68
2023/07/03 08:33:15;;;;;;;10.95;3.37;;;;;;;32.86;36.16;98562.86;1730949;81;20980;-64
2023/07/03 08:35:42;;;;;;;8.33;3.37;;;;;;;32.15;33.27;98563.71;1727473;81;21010;-64
2023/07/03 08:38:09;;;;;;;8.63;3.15;;;;;;;30.23;32.63;98572.14;1730551;81;21606;-67
2023/07/03 08:40:37;;;;;;;7.67;3.35;;;;;;;28.67;34.14;98578.59;1733463;81;21050;-67
2023/07/03 08:43:07;;;;;;;15.38;3.85;;;;;;;28.03;34.61;98589.73;1732439;81;20963;-62
2023/07/03 08:45:40;;;;;;;9.00;2.85;;;;;;;29.14;34.38;98582.59;1729295;81;20947;-63
2023/07/03 08:48:10;;;;;;;10.45;3.50;;;;;;;29.85;33.75;98579.09;1731024;81;20915;-64
2023/07/03 08:50:37;;;;;;;6.12;3.08;;;;;;;29.83;31.62;98579.88;1728047;81;20978;-66
2023/07/03 08:53:06;;;;;;;7.65;3.42;;;;;;;28.99;33.03;98580.73;1730100;81;21508;-64
2023/07/03 08:55:36;;;;;;;7.90;3.50;;;;;;;29.58;33.25;98583.42;1725949;81;20962;-65
2023/07/03 08:58:02;;;;;;;13.43;3.60;;;;;;;30.68;32.70;98581.66;1729281;81;21014;-62
2023/07/03 09:00:32;;;;;;;10.80;4.10;;;;;;;31.90;31.40;98589.10;1731521;81;21665;-66
2023/07/03 09:03:08;;;;;;;9.05;3.25;;;;;;;32.43;32.51;98576.39;1730623;81;21545;-64
2023/07/03 09:06:06;;;;;;;8.63;3.25;;;;;;;32.27;31.80;98580.17;1721908;81;21457;-61
2023/07/03 09:08:37;;;;;;;9.13;3.10;;;;;;;30.91;29.90;98595.20;1724451;81;21488;-62
2023/07/03 09:11:04;;;;;;;8.38;3.75;;;;;;;30.58;31.89;98602.94;1729185;81;21079;-66
2023/07/03 09:13:39;;;;;;;12.25;3.40;;;;;;;31.56;31.49;98590.80;1728319;81;21034;-67
2023/07/03 09:16:08;;;;;;;13.70;3.75;;;;;;;31.71;30.78;98601.95;1726930;81;20971;-62
2023/07/03 09:18:45;;;;;;;9.10;3.47;;;;;;;30.95;29.84;98607.18;1725293;81;20966;-61
2023/07/03 09:21:12;;;;;;;;;;;;;;;30.77;31.16;98616.11;1730746;81;21514;-63
2023/07/03 09:23:57;;;;;;;8.95;3.20;;;;;;;31.94;30.86;98605.70;1729697;81;20431;-62
2023/07/03 09:26:43;;;;;;;7.45;3.37;;;;;;;33.04;30.56;98604.53;1727321;81;21046;-65
2023/07/03 09:29:12;;;;;;;6.70;3.33;;;;;;;32.25;29.83;98614.70;1728177;81;20991;-64
2023/07/03 09:31:38;;;;;;;7.50;3.47;;;;;;;30.61;29.76;98605.17;1730086;81;21005;-63
2023/07/03 09:34:04;;;;;;;6.70;3.52;;;;;;;28.89;29.66;98616.66;1729118;81;21524;-62
2023/07/03 09:36:37;;;;;;;7.65;3.30;;;;;;;27.22;29.79;98620.40;1709351;82;20923;-63
2023/07/03 09:39:13;;;;;;;7.60;3.45;;;;;;;25.86;30.17;98632.45;1727441;81;21045;-63
2023/07/03 09:41:41;;;;;;;6.70;3.27;;;;;;;24.85;30.33;98627.31;1732938;81;20990;-62
2023/07/03 09:44:13;;;;;;;5.12;2.72;;;;;;;24.28;31.36;98639.61;1707708;82;20986;-62
2023/07/03 09:46:41;;;;;;;7.47;3.75;;;;;;;25.34;32.67;98625.69;1726670;81;21002;-65
2023/07/03 09:49:22;;;;;;;7.10;3.45;;;;;;;27.58;32.24;98617.79;1726966;81;21061;-64
2023/07/03 09:51:52;;;;;;;18.20;3.42;;;;;;;29.66;30.87;98617.27;1726270;81;21045;-62
2023/07/03 09:54:23;;;;;;;8.23;3.12;;;;;;;31.38;31.71;98614.16;1736366;81;21029;-65
2023/07/03 09:56:50;;;;;;;10.65;3.40;;;;;;;32.90;30.80;98608.59;1728405;81;20974;-61
2023/07/03 09:59:19;;;;;;;13.03;3.90;;;;;;;33.29;28.14;98600.59;1730608;81;20943;-65
2023/07/03 10:01:47;;;;;;;6.60;3.87;;;;;;;32.25;28.76;98626.84;1729166;81;21050;-63
2023/07/03 10:04:17;;;;;;;12.95;3.65;;;;;;;31.86;29.13;98621.16;1727895;81;20974;-62
2023/07/03 10:06:53;;;;;;;7.53;3.50;;;;;;;30.96;28.50;98626.33;1732833;81;21101;-65
2023/07/03 10:09:29;;;;;;;8.08;3.60;;;;;;;29.69;28.74;98641.56;1732850;81;21057;-63
2023/07/03 10:12:02;;;;;;;11.80;3.30;;;;;;;28.32;29.17;98640.20;1729620;81;20987;-66
2023/07/03 10:14:36;;;;;;;;;;;;;;;27.76;29.89;98639.42;1731852;81;21077;-63
2023/07/03 10:17:12;;;;;;;8.73;3.55;;;;;;;27.74;29.04;98646.84;1725789;81;20188;-63
2023/07/03 10:19:34;;;;;;;12.68;3.70;;;;;;;27.29;29.74;98617.22;1713062;81;21139;-61
2023/07/03 10:22:06;;;;;;;15.93;3.98;;;;;;;26.93;29.47;98626.44;1726055;81;22455;-64
2023/07/03 10:24:35;;;;;;;14.73;3.67;;;;;;;26.48;29.68;98652.87;1704295;83;20986;-64
2023/07/03 10:27:04;;;;;;;12.40;3.35;;;;;;;26.08;29.80;98655.41;1721461;81;20964;-61
2023/07/03 10:29:38;;;;;;;16.30;4.08;;;;;;;26.75;30.46;98650.33;1731211;81;21084;-62
2023/07/03 10:32:14;;;;;;;16.67;4.55;;;;;;;27.43;30.72;98656.38;1732317;81;21607;-61
2023/07/03 10:34:44;;;;;;;14.73;3.70;;;;;;;29.32;31.04;98653.03;1710334;82;21002;-62
2023/07/03 10:37:13;;;;;;;10.43;3.60;;;;;;;31.03;30.56;98652.36;1707109;82;21035;-64
2023/07/03 10:39:45;;;;;;;6.90;3.72;;;;;;;32.74;28.59;98652.95;1708668;81;21615;-65
2023/07/03 10:42:22;;;;;;;8.80;3.77;;;;;;;34.20;30.40;98642.21;1726160;81;21021;-64
2023/07/03 10:44:52;;;;;;;10.32;3.65;;;;;;;34.53;27.52;98646.14;1724581;81;21053;-68
2023/07/03 10:47:46;;;;;;;12.58;4.15;;;;;;;33.18;27.48;98653.17;1730202;81;20943;-64
2023/07/03 10:50:11;;;;;;;12.93;3.30;;;;;;;31.37;26.76;98642.20;1704992;82;21001;-64
2023/07/03 10:52:52;;;;;;;24.92;5.42;;;;;;;30.61;27.91;98635.62;1725582;81;21481;-62
2023/07/03 10:55:24;;;;;;;6.33;3.15;;;;;;;29.78;28.24;98641.59;1727515;81;20970;-64
2023/07/03 10:57:58;;;;;;;13.45;3.87;;;;;;;30.92;28.77;98652.11;1724600;81;21029;-65
2023/07/03 11:00:46;;;;;;;28.83;6.03;;;;;;;31.25;26.82;98645.36;1725050;81;21004;-64
2023/07/03 11:03:36;;;;;;;10.60;3.47;;;;;;;30.04;27.34;98657.44;1725346;81;21097;-67
2023/07/03 11:06:06;;;;;;;7.58;3.67;;;;;;;29.97;28.37;98655.86;1730675;81;22264;-62
2023/07/03 11:08:49;;;;;;;20.95;3.85;;;;;;;29.80;27.74;98650.24;1729255;81;21038;-64
2023/07/03 11:11:56;;;;;;;8.65;3.83;;;;;;;29.31;27.68;98650.58;1697954;83;21075;-64
2023/07/03 11:14:43;;;;;;;7.25;3.20;;;;;;;28.49;27.35;98646.45;1687708;83;21174;-63
2023/07/03 11:17:18;;;;;;;12.47;4.53;;;;;;;27.79;28.24;98661.83;1668253;85;21637;-64
2023/07/03 11:19:48;;;;;;;13.58;4.22;;;;;;;28.58;28.40;98661.27;1647910;86;20979;-65
2023/07/03 11:22:21;;;;;;;7.20;3.80;;;;;;;29.92;27.92;98656.55;1668882;84;21580;-65
2023/07/03 11:25:10;;;;;;;13.58;3.42;;;;;;;30.74;27.59;98665.08;1669108;85;20967;-64
2023/07/03 11:28:02;;;;;;;11.50;4.17;;;;;;;31.03;27.67;98655.05;1664137;85;21130;-66
2023/07/03 11:30:33;;;;;;;17.85;5.62;;;;;;;31.34;27.52;98661.52;1665343;85;21590;-67
2023/07/03 11:33:05;;;;;;;18.87;4.30;;;;;;;31.82;27.15;98665.88;1663798;85;21708;-65
2023/07/03 11:35:33;;;;;;;13.20;3.87;;;;;;;32.22;27.35;98665.14;1669524;84;20991;-65
2023/07/03 11:38:03;;;;;;;9.88;4.17;;;;;;;32.43;26.32;98669.59;1665568;85;20968;-67
2023/07/03 11:40:41;;;;;;;13.10;3.70;;;;;;;31.97;25.71;98660.55;1669018;84;20988;-66
2023/07/03 11:43:33;;;;;;;24.25;5.17;;;;;;;31.59;26.18;98670.77;1662293;84;21062;-66